sensor_id;sensor_type;location;lat;lon;timestamp;pressure;altitude;pressure_sealevel;temperature;humidity
49583;BME280;36329;48.816;44.624;2024-01-30T00:01:13;103067.01;;;-2.7;100
49583;BME280;36329;48.816;44.624;2024-01-30T00:04:15;103066;;;-2.5;100
49583;BME280;36329;48.816;44.624;2024-01-30T00:07:18;103061;;;-2.5;100
49583;BME280;36329;48.816;44.624;2024-01-30T00:10:20;103056.99;;;-2.4;100
49583;BME280;36329;48.816;44.624;2024-01-30T00:13:22;103063;;;-2.4;100
49583;BME280;36329;48.816;44.624;2024-01-30T00:16:25;103064;;;-2.5;100
49583;BME280;36329;48.816;44.624;2024-01-30T00:19:28;103060;;;-2.4;100
49583;BME280;36329;48.816;44.624;2024-01-30T00:22:30;103054;;;-2.6;100
49583;BME280;36329;48.816;44.624;2024-01-30T00:25:32;103053;;;-2.9;100
49583;BME280;36329;48.816;44.624;2024-01-30T00:28:35;103052;;;-3.1;100
49583;BME280;36329;48.816;44.624;2024-01-30T00:31:37;103048;;;-3.2;100
49583;BME280;36329;48.816;44.624;2024-01-30T00:34:41;103043.99;;;-3.2;100
49583;BME280;36329;48.816;44.624;2024-01-30T00:37:43;103046;;;-3;100
49583;BME280;36329;48.816;44.624;2024-01-30T00:40:46;103040;;;-2.8;100
49583;BME280;36329;48.816;44.624;2024-01-30T00:43:48;103035;;;-2.8;100
49583;BME280;36329;48.816;44.624;2024-01-30T00:46:50;103026;;;-2.6;100
49583;BME280;36329;48.816;44.624;2024-01-30T00:49:52;103024;;;-2.6;100
49583;BME280;36329;48.816;44.624;2024-01-30T00:52:55;103026;;;-2.6;100
49583;BME280;36329;48.816;44.624;2024-01-30T00:55:57;103025;;;-2.6;100
49583;BME280;36329;48.816;44.624;2024-01-30T00:59:00;103024;;;-2.5;100
49583;BME280;36329;48.816;44.624;2024-01-30T01:02:02;103024;;;-2.4;100
49583;BME280;36329;48.816;44.624;2024-01-30T01:05:10;103018.01;;;-2.4;100
49583;BME280;36329;48.816;44.624;2024-01-30T01:08:12;103013;;;-2.2;100
49583;BME280;36329;48.816;44.624;2024-01-30T01:11:15;103018.01;;;-2.2;100
49583;BME280;36329;48.816;44.624;2024-01-30T01:14:17;103019.99;;;-2.1;100
49583;BME280;36329;48.816;44.624;2024-01-30T01:17:19;103017.01;;;-2;100
49583;BME280;36329;48.816;44.624;2024-01-30T01:20:22;103013;;;-2.1;100
49583;BME280;36329;48.816;44.624;2024-01-30T01:23:24;103010;;;-2.1;99.2
49583;BME280;36329;48.816;44.624;2024-01-30T01:26:26;103006.99;;;-2.1;99.3
49583;BME280;36329;48.816;44.624;2024-01-30T01:29:29;103002;;;-2;98.1
49583;BME280;36329;48.816;44.624;2024-01-30T01:32:31;102999;;;-2;97.9
49583;BME280;36329;48.816;44.624;2024-01-30T01:35:33;103004;;;-2.2;98.6
49583;BME280;36329;48.816;44.624;2024-01-30T01:38:35;103004;;;-2;98.1
49583;BME280;36329;48.816;44.624;2024-01-30T01:41:38;103009;;;-2;97
49583;BME280;36329;48.816;44.624;2024-01-30T01:44:40;103004;;;-2.1;98.1
49583;BME280;36329;48.816;44.624;2024-01-30T01:47:42;103011;;;-2.3;99.4
49583;BME280;36329;48.816;44.624;2024-01-30T01:50:45;103009;;;-2.2;99.7
49583;BME280;36329;48.816;44.624;2024-01-30T01:53:48;103012;;;-2.1;99.5
49583;BME280;36329;48.816;44.624;2024-01-30T01:56:51;103011;;;-2;98.7
49583;BME280;36329;48.816;44.624;2024-01-30T01:59:53;103006.99;;;-2.1;100
49583;BME280;36329;48.816;44.624;2024-01-30T02:02:56;103004;;;-2.1;100
49583;BME280;36329;48.816;44.624;2024-01-30T02:05:59;103003;;;-1.9;99.8
49583;BME280;36329;48.816;44.624;2024-01-30T02:09:02;103000;;;-2;100
49583;BME280;36329;48.816;44.624;2024-01-30T02:12:05;102994.99;;;-2.1;100
49583;BME280;36329;48.816;44.624;2024-01-30T02:15:07;103001;;;-1.9;100
49583;BME280;36329;48.816;44.624;2024-01-30T02:18:15;102996;;;-1.7;99.9
49583;BME280;36329;48.816;44.624;2024-01-30T02:21:33;102993.01;;;-1.7;100
49583;BME280;36329;48.816;44.624;2024-01-30T02:24:35;102993.01;;;-1.9;100
49583;BME280;36329;48.816;44.624;2024-01-30T02:27:37;102987;;;-2;100
49583;BME280;36329;48.816;44.624;2024-01-30T02:30:40;102989;;;-2.1;100
49583;BME280;36329;48.816;44.624;2024-01-30T02:33:42;102990;;;-2.2;100
49583;BME280;36329;48.816;44.624;2024-01-30T02:36:45;102982.99;;;-2.3;100
49583;BME280;36329;48.816;44.624;2024-01-30T02:39:47;102980.01;;;-2.1;100
49583;BME280;36329;48.816;44.624;2024-01-30T02:42:50;102978;;;-2;100
49583;BME280;36329;48.816;44.624;2024-01-30T02:45:52;102972;;;-2;100
49583;BME280;36329;48.816;44.624;2024-01-30T02:48:54;102959;;;-2.3;100
49583;BME280;36329;48.816;44.624;2024-01-30T02:51:57;102956.99;;;-2.5;100
49583;BME280;36329;48.816;44.624;2024-01-30T02:54:59;102957.99;;;-2.6;100
49583;BME280;36329;48.816;44.624;2024-01-30T02:58:02;102960;;;-2.2;100
49583;BME280;36329;48.816;44.624;2024-01-30T03:01:04;102956.99;;;-2.5;100
49583;BME280;36329;48.816;44.624;2024-01-30T03:04:06;102959;;;-2.5;100
49583;BME280;36329;48.816;44.624;2024-01-30T03:07:09;102966;;;-2.3;100
49583;BME280;36329;48.816;44.624;2024-01-30T03:10:11;102973;;;-2.3;100
49583;BME280;36329;48.816;44.624;2024-01-30T03:13:14;102971;;;-2.3;100
49583;BME280;36329;48.816;44.624;2024-01-30T03:16:16;102965;;;-2.4;100
49583;BME280;36329;48.816;44.624;2024-01-30T03:19:18;102960;;;-2.5;100
49583;BME280;36329;48.816;44.624;2024-01-30T03:22:21;102963;;;-2.4;100
49583;BME280;36329;48.816;44.624;2024-01-30T03:25:23;102956.99;;;-2.5;100
49583;BME280;36329;48.816;44.624;2024-01-30T03:28:26;102963;;;-2.5;100
49583;BME280;36329;48.816;44.624;2024-01-30T03:31:28;102956.99;;;-2.3;100
49583;BME280;36329;48.816;44.624;2024-01-30T03:34:30;102946;;;-2.2;100
49583;BME280;36329;48.816;44.624;2024-01-30T03:37:32;102938;;;-2;100
49583;BME280;36329;48.816;44.624;2024-01-30T03:40:34;102938;;;-1.9;100
49583;BME280;36329;48.816;44.624;2024-01-30T03:43:37;102937;;;-2;100
49583;BME280;36329;48.816;44.624;2024-01-30T03:46:40;102935;;;-1.9;100
49583;BME280;36329;48.816;44.624;2024-01-30T03:49:42;102925;;;-2;100
49583;BME280;36329;48.816;44.624;2024-01-30T03:52:44;102929;;;-1.9;100
49583;BME280;36329;48.816;44.624;2024-01-30T03:55:46;102932.99;;;-1.8;100
49583;BME280;36329;48.816;44.624;2024-01-30T03:58:49;102934;;;-1.7;100
49583;BME280;36329;48.816;44.624;2024-01-30T04:01:51;102936;;;-1.6;100
49583;BME280;36329;48.816;44.624;2024-01-30T04:04:53;102934;;;-1.8;100
49583;BME280;36329;48.816;44.624;2024-01-30T04:07:56;102932.99;;;-1.7;100
49583;BME280;36329;48.816;44.624;2024-01-30T04:10:58;102918.99;;;-1.7;100
49583;BME280;36329;48.816;44.624;2024-01-30T04:14:00;102922;;;-1.5;100
49583;BME280;36329;48.816;44.624;2024-01-30T04:17:03;102915;;;-1.6;100
49583;BME280;36329;48.816;44.624;2024-01-30T04:20:06;102919.99;;;-1.7;100
49583;BME280;36329;48.816;44.624;2024-01-30T04:23:08;102916;;;-1.6;100
49583;BME280;36329;48.816;44.624;2024-01-30T04:26:11;102913;;;-1.4;100
49583;BME280;36329;48.816;44.624;2024-01-30T04:29:13;102907.99;;;-1.3;100
49583;BME280;36329;48.816;44.624;2024-01-30T04:32:15;102912;;;-1.5;100
49583;BME280;36329;48.816;44.624;2024-01-30T04:35:17;102911;;;-1.5;100
49583;BME280;36329;48.816;44.624;2024-01-30T04:38:20;102917.01;;;-1.5;100
49583;BME280;36329;48.816;44.624;2024-01-30T04:41:22;102907.99;;;-1.4;100
49583;BME280;36329;48.816;44.624;2024-01-30T04:44:25;102915;;;-1.3;100
49583;BME280;36329;48.816;44.624;2024-01-30T04:47:27;102921;;;-1.4;100
49583;BME280;36329;48.816;44.624;2024-01-30T04:50:30;102917.01;;;-1.3;100
49583;BME280;36329;48.816;44.624;2024-01-30T04:53:32;102909;;;-1.3;100
49583;BME280;36329;48.816;44.624;2024-01-30T04:56:34;102911;;;-1.4;100
49583;BME280;36329;48.816;44.624;2024-01-30T04:59:37;102909;;;-1.3;100
49583;BME280;36329;48.816;44.624;2024-01-30T05:02:39;102911;;;-1.5;100
49583;BME280;36329;48.816;44.624;2024-01-30T05:05:41;102906.99;;;-1.6;100
49583;BME280;36329;48.816;44.624;2024-01-30T05:08:45;102914;;;-1.4;100
49583;BME280;36329;48.816;44.624;2024-01-30T05:11:48;102906.01;;;-1.2;100
49583;BME280;36329;48.816;44.624;2024-01-30T05:14:50;102902;;;-1.3;100
49583;BME280;36329;48.816;44.624;2024-01-30T05:17:52;102902;;;-1.4;100
49583;BME280;36329;48.816;44.624;2024-01-30T05:20:55;102897;;;-1.1;100
49583;BME280;36329;48.816;44.624;2024-01-30T05:23:57;102893.01;;;-0.9;100
49583;BME280;36329;48.816;44.624;2024-01-30T05:27:00;102893.01;;;-0.9;100
49583;BME280;36329;48.816;44.624;2024-01-30T05:30:02;102896;;;-0.9;100
49583;BME280;36329;48.816;44.624;2024-01-30T05:33:06;102894.99;;;-0.8;100
49583;BME280;36329;48.816;44.624;2024-01-30T05:36:11;102890;;;-0.8;99.6
49583;BME280;36329;48.816;44.624;2024-01-30T05:39:13;102881.01;;;-0.9;99.9
49583;BME280;36329;48.816;44.624;2024-01-30T05:42:15;102873;;;-1;100
49583;BME280;36329;48.816;44.624;2024-01-30T05:45:17;102875;;;-1;100
49583;BME280;36329;48.816;44.624;2024-01-30T05:48:19;102871;;;-1.1;100
49583;BME280;36329;48.816;44.624;2024-01-30T05:51:22;102878;;;-1.1;100
49583;BME280;36329;48.816;44.624;2024-01-30T05:54:24;102868.99;;;-0.9;100
49583;BME280;36329;48.816;44.624;2024-01-30T05:57:26;102874;;;-0.9;99.3
49583;BME280;36329;48.816;44.624;2024-01-30T06:00:29;102877;;;-0.9;99
49583;BME280;36329;48.816;44.624;2024-01-30T06:03:31;102877;;;-0.9;98.9
49583;BME280;36329;48.816;44.624;2024-01-30T06:06:33;102871;;;-0.9;100
49583;BME280;36329;48.816;44.624;2024-01-30T06:09:35;102862;;;-0.7;98.9
49583;BME280;36329;48.816;44.624;2024-01-30T06:12:38;102857.99;;;-0.7;97.6
49583;BME280;36329;48.816;44.624;2024-01-30T06:15:40;102857.99;;;-0.7;97.1
49583;BME280;36329;48.816;44.624;2024-01-30T06:18:42;102854;;;-0.7;97.5
49583;BME280;36329;48.816;44.624;2024-01-30T06:21:45;102847;;;-0.5;97.1
49583;BME280;36329;48.816;44.624;2024-01-30T06:24:47;102850;;;-0.4;95.8
49583;BME280;36329;48.816;44.624;2024-01-30T06:27:50;102842.01;;;-0.5;95
49583;BME280;36329;48.816;44.624;2024-01-30T06:30:52;102855.01;;;-0.6;95.6
49583;BME280;36329;48.816;44.624;2024-01-30T06:33:54;102846;;;-0.3;95.5
49583;BME280;36329;48.816;44.624;2024-01-30T06:36:57;102835;;;-0.4;95.1
49583;BME280;36329;48.816;44.624;2024-01-30T06:39:59;102836;;;-0.1;95.6
49583;BME280;36329;48.816;44.624;2024-01-30T06:43:01;102823;;;0.4;94.1
49583;BME280;36329;48.816;44.624;2024-01-30T06:46:03;102827;;;0.5;88
49583;BME280;36329;48.816;44.624;2024-01-30T06:49:05;102831.01;;;0.7;89.7
49583;BME280;36329;48.816;44.624;2024-01-30T06:52:07;102818.99;;;0.3;88.8
49583;BME280;36329;48.816;44.624;2024-01-30T06:55:10;102818.01;;;0.5;90.6
49583;BME280;36329;48.816;44.624;2024-01-30T06:58:12;102811;;;0.8;87.5
49583;BME280;36329;48.816;44.624;2024-01-30T07:01:14;102806.99;;;0.8;86.6
49583;BME280;36329;48.816;44.624;2024-01-30T07:04:16;102799;;;0.6;87.6
49583;BME280;36329;48.816;44.624;2024-01-30T07:07:19;102810;;;0.6;87.9
49583;BME280;36329;48.816;44.624;2024-01-30T07:10:21;102801;;;0.6;87.6
49583;BME280;36329;48.816;44.624;2024-01-30T07:13:23;102818.01;;;0.7;87
49583;BME280;36329;48.816;44.624;2024-01-30T07:16:25;102803;;;0.7;88
49583;BME280;36329;48.816;44.624;2024-01-30T07:19:27;102806.99;;;0.6;87.5
49583;BME280;36329;48.816;44.624;2024-01-30T07:22:30;102803;;;0.9;86.8
49583;BME280;36329;48.816;44.624;2024-01-30T07:25:32;102796;;;0.8;86.6
49583;BME280;36329;48.816;44.624;2024-01-30T07:28:35;102799;;;0.8;85.6
49583;BME280;36329;48.816;44.624;2024-01-30T07:31:37;102793.01;;;0.6;87.2
49583;BME280;36329;48.816;44.624;2024-01-30T07:34:39;102788;;;0.8;87.4
49583;BME280;36329;48.816;44.624;2024-01-30T07:37:42;102788;;;1;86.3
49583;BME280;36329;48.816;44.624;2024-01-30T07:40:44;102788;;;1;85
49583;BME280;36329;48.816;44.624;2024-01-30T07:43:47;102776;;;1.1;85.6
49583;BME280;36329;48.816;44.624;2024-01-30T07:46:49;102776;;;1;84.7
49583;BME280;36329;48.816;44.624;2024-01-30T07:49:52;102768.01;;;1.1;84.2
49583;BME280;36329;48.816;44.624;2024-01-30T07:52:55;102753;;;1;84.9
49583;BME280;36329;48.816;44.624;2024-01-30T07:55:57;102740;;;0.9;85.1
49583;BME280;36329;48.816;44.624;2024-01-30T07:59:00;102734;;;0.9;85.2
49583;BME280;36329;48.816;44.624;2024-01-30T08:02:02;102736;;;0.8;86.7
49583;BME280;36329;48.816;44.624;2024-01-30T08:05:05;102729;;;0.8;86.6
49583;BME280;36329;48.816;44.624;2024-01-30T08:08:07;102724;;;0.9;86.6
49583;BME280;36329;48.816;44.624;2024-01-30T08:11:10;102718.99;;;1.4;84.9
49583;BME280;36329;48.816;44.624;2024-01-30T08:14:12;102714;;;1.4;82.7
49583;BME280;36329;48.816;44.624;2024-01-30T08:17:14;102704;;;1.1;84.1
49583;BME280;36329;48.816;44.624;2024-01-30T08:20:17;102704;;;1.2;83.9
49583;BME280;36329;48.816;44.624;2024-01-30T08:23:19;102689;;;1.4;83.7
49583;BME280;36329;48.816;44.624;2024-01-30T08:26:21;102690;;;1.5;83
49583;BME280;36329;48.816;44.624;2024-01-30T08:29:23;102672;;;1.4;83
49583;BME280;36329;48.816;44.624;2024-01-30T08:32:27;102675;;;1.4;82.9
49583;BME280;36329;48.816;44.624;2024-01-30T08:35:29;102663;;;1.3;82.5
49583;BME280;36329;48.816;44.624;2024-01-30T08:38:32;102641;;;1.2;83
49583;BME280;36329;48.816;44.624;2024-01-30T08:41:34;102646;;;0.8;85.1
49583;BME280;36329;48.816;44.624;2024-01-30T08:44:36;102650;;;0.7;86.5
49583;BME280;36329;48.816;44.624;2024-01-30T08:47:40;102649;;;0.8;86.7
49583;BME280;36329;48.816;44.624;2024-01-30T08:50:43;102651;;;1.1;86.2
49583;BME280;36329;48.816;44.624;2024-01-30T08:53:45;102635;;;1;85.6
49583;BME280;36329;48.816;44.624;2024-01-30T08:56:47;102637;;;1.1;85
49583;BME280;36329;48.816;44.624;2024-01-30T08:59:50;102625;;;1.2;84.5
49583;BME280;36329;48.816;44.624;2024-01-30T09:02:52;102623;;;1.2;84.1
49583;BME280;36329;48.816;44.624;2024-01-30T09:05:54;102610;;;1.4;83.4
49583;BME280;36329;48.816;44.624;2024-01-30T09:08:56;102602;;;1.7;82.3
49583;BME280;36329;48.816;44.624;2024-01-30T09:11:58;102591;;;1.7;82
49583;BME280;36329;48.816;44.624;2024-01-30T09:15:01;102566;;;1.7;81.6
49583;BME280;36329;48.816;44.624;2024-01-30T09:18:06;102556.01;;;1.9;80.9
49583;BME280;36329;48.816;44.624;2024-01-30T09:21:08;102553;;;2.5;77.9
49583;BME280;36329;48.816;44.624;2024-01-30T09:24:13;102549;;;2.5;76.7
49583;BME280;36329;48.816;44.624;2024-01-30T09:27:15;102513;;;3;74.1
49583;BME280;36329;48.816;44.624;2024-01-30T09:30:17;102511;;;2.6;74
49583;BME280;36329;48.816;44.624;2024-01-30T09:33:21;102511;;;3.3;73.8
49583;BME280;36329;48.816;44.624;2024-01-30T09:36:23;102491;;;3.3;71.7
49583;BME280;36329;48.816;44.624;2024-01-30T09:39:25;102498;;;4.3;67.4
49583;BME280;36329;48.816;44.624;2024-01-30T09:42:33;102491;;;4.3;67.5
49583;BME280;36329;48.816;44.624;2024-01-30T09:45:37;102473;;;3.9;68.3
49583;BME280;36329;48.816;44.624;2024-01-30T09:48:41;102494.99;;;3.7;69.5
49583;BME280;36329;48.816;44.624;2024-01-30T09:51:44;102501;;;2.8;73.8
49583;BME280;36329;48.816;44.624;2024-01-30T09:54:49;102516;;;2.4;76.6
49583;BME280;36329;48.816;44.624;2024-01-30T09:57:53;102517.01;;;1.8;80.5
49583;BME280;36329;48.816;44.624;2024-01-30T10:00:56;102501;;;1.7;81.5
49583;BME280;36329;48.816;44.624;2024-01-30T10:03:58;102488;;;1.5;84.3
49583;BME280;36329;48.816;44.624;2024-01-30T10:07:02;102481.01;;;1.2;85.1
49583;BME280;36329;48.816;44.624;2024-01-30T10:10:05;102465;;;1.3;85.4
49583;BME280;36329;48.816;44.624;2024-01-30T10:13:08;102480.01;;;1.5;84.3
49583;BME280;36329;48.816;44.624;2024-01-30T10:16:10;102488;;;1.8;82.8
49583;BME280;36329;48.816;44.624;2024-01-30T10:19:15;102480.01;;;1.9;81.8
49583;BME280;36329;48.816;44.624;2024-01-30T10:22:18;102471;;;2;81.5
49583;BME280;36329;48.816;44.624;2024-01-30T10:25:21;102468.99;;;2;79
49583;BME280;36329;48.816;44.624;2024-01-30T10:28:26;102451;;;1.4;82.3
49583;BME280;36329;48.816;44.624;2024-01-30T10:31:28;102441;;;1.3;83.1
49583;BME280;36329;48.816;44.624;2024-01-30T10:34:31;102449;;;1.7;82.5
49583;BME280;36329;48.816;44.624;2024-01-30T10:37:34;102455.01;;;1.9;80
49583;BME280;36329;48.816;44.624;2024-01-30T10:40:38;102462;;;2.4;77.9
49583;BME280;36329;48.816;44.624;2024-01-30T10:43:41;102430.01;;;2.5;76.9
49583;BME280;36329;48.816;44.624;2024-01-30T10:46:46;102428;;;3.1;73
49583;BME280;36329;48.816;44.624;2024-01-30T10:49:51;102439;;;3.6;71.4
49583;BME280;36329;48.816;44.624;2024-01-30T10:52:54;102419.99;;;4.2;69
49583;BME280;36329;48.816;44.624;2024-01-30T10:55:57;102428;;;3.5;71.5
49583;BME280;36329;48.816;44.624;2024-01-30T10:59:01;102406.99;;;3.8;70.7
49583;BME280;36329;48.816;44.624;2024-01-30T11:02:04;102404;;;4.1;70.1
49583;BME280;36329;48.816;44.624;2024-01-30T11:05:08;102418.01;;;3.5;70.1
49583;BME280;36329;48.816;44.624;2024-01-30T11:08:11;102411;;;4.7;67.5
49583;BME280;36329;48.816;44.624;2024-01-30T11:11:16;102409;;;5.2;68.8
49583;BME280;36329;48.816;44.624;2024-01-30T11:14:23;102410;;;4;67.3
49583;BME280;36329;48.816;44.624;2024-01-30T11:17:28;102415;;;2.6;73
49583;BME280;36329;48.816;44.624;2024-01-30T11:20:31;102406.01;;;2.4;77.4
49583;BME280;36329;48.816;44.624;2024-01-30T11:23:34;102404;;;2.2;78.4
49583;BME280;36329;48.816;44.624;2024-01-30T11:26:36;102403;;;1.9;79.2
49583;BME280;36329;48.816;44.624;2024-01-30T11:29:39;102411;;;1.8;81.7
49583;BME280;36329;48.816;44.624;2024-01-30T11:32:43;102404;;;1.6;83
49583;BME280;36329;48.816;44.624;2024-01-30T11:35:45;102381;;;1.8;83.2
49583;BME280;36329;48.816;44.624;2024-01-30T11:38:47;102395;;;1.7;82.3
49583;BME280;36329;48.816;44.624;2024-01-30T11:41:51;102392;;;1.3;83.8
49583;BME280;36329;48.816;44.624;2024-01-30T11:44:54;102400;;;1;85.9
49583;BME280;36329;48.816;44.624;2024-01-30T11:47:57;102394;;;1;87.3
49583;BME280;36329;48.816;44.624;2024-01-30T11:50:59;102388;;;1;87.1
49583;BME280;36329;48.816;44.624;2024-01-30T11:54:02;102388;;;1.2;87.1
49583;BME280;36329;48.816;44.624;2024-01-30T11:57:05;102395;;;1.3;86.5
49583;BME280;36329;48.816;44.624;2024-01-30T12:00:13;102391;;;1.2;87.4
49583;BME280;36329;48.816;44.624;2024-01-30T12:03:17;102388;;;0.9;89.8
49583;BME280;36329;48.816;44.624;2024-01-30T12:06:19;102379;;;0.9;89.5
49583;BME280;36329;48.816;44.624;2024-01-30T12:09:22;102379;;;0.9;90
49583;BME280;36329;48.816;44.624;2024-01-30T12:12:25;102384;;;1;89.8
49583;BME280;36329;48.816;44.624;2024-01-30T12:15:28;102396;;;1.2;89
49583;BME280;36329;48.816;44.624;2024-01-30T12:18:30;102387;;;1.3;88.3
49583;BME280;36329;48.816;44.624;2024-01-30T12:21:34;102370;;;1.1;88.5
49583;BME280;36329;48.816;44.624;2024-01-30T12:24:36;102394;;;0.9;89.6
49583;BME280;36329;48.816;44.624;2024-01-30T12:27:40;102388;;;1;90.1
49583;BME280;36329;48.816;44.624;2024-01-30T12:30:43;102372;;;1.3;88.4
49583;BME280;36329;48.816;44.624;2024-01-30T12:33:48;102363;;;1;90.5
49583;BME280;36329;48.816;44.624;2024-01-30T12:36:51;102357;;;0.6;90.9
49583;BME280;36329;48.816;44.624;2024-01-30T12:39:53;102374;;;0.7;91.2
49583;BME280;36329;48.816;44.624;2024-01-30T12:42:56;102359;;;0.6;90.6
49583;BME280;36329;48.816;44.624;2024-01-30T12:45:58;102354;;;0.3;91.7
49583;BME280;36329;48.816;44.624;2024-01-30T12:49:00;102357;;;0.5;92.5
49583;BME280;36329;48.816;44.624;2024-01-30T12:52:03;102336;;;0.3;92
49583;BME280;36329;48.816;44.624;2024-01-30T12:55:06;102345;;;0.2;92.8
49583;BME280;36329;48.816;44.624;2024-01-30T12:58:08;102335;;;0.1;94.1
49583;BME280;36329;48.816;44.624;2024-01-30T13:01:10;102333;;;0.2;93.5
49583;BME280;36329;48.816;44.624;2024-01-30T13:04:13;102335;;;0.1;94.4
49583;BME280;36329;48.816;44.624;2024-01-30T13:07:16;102332;;;0.3;94.1
49583;BME280;36329;48.816;44.624;2024-01-30T13:10:18;102327;;;0.3;93.4
49583;BME280;36329;48.816;44.624;2024-01-30T13:13:20;102335;;;0.2;94.5
49583;BME280;36329;48.816;44.624;2024-01-30T13:16:22;102343;;;0.1;94.4
49583;BME280;36329;48.816;44.624;2024-01-30T13:19:24;102339;;;0.1;94.8
49583;BME280;36329;48.816;44.624;2024-01-30T13:22:26;102338;;;0.1;95
49583;BME280;36329;48.816;44.624;2024-01-30T13:25:29;102332;;;0.2;95.1
49583;BME280;36329;48.816;44.624;2024-01-30T13:28:31;102334;;;0.1;95.4
49583;BME280;36329;48.816;44.624;2024-01-30T13:31:34;102331;;;-0.1;96.8
49583;BME280;36329;48.816;44.624;2024-01-30T13:34:36;102348;;;0;96.9
49583;BME280;36329;48.816;44.624;2024-01-30T13:37:38;102347;;;0.2;96.2
49583;BME280;36329;48.816;44.624;2024-01-30T13:40:40;102344;;;0;95.4
49583;BME280;36329;48.816;44.624;2024-01-30T13:43:43;102344;;;-0.1;97.1
49583;BME280;36329;48.816;44.624;2024-01-30T13:46:45;102351;;;-0.3;96.9
49583;BME280;36329;48.816;44.624;2024-01-30T13:49:47;102351;;;-0.3;97.8
49583;BME280;36329;48.816;44.624;2024-01-30T13:52:49;102342;;;-0.3;97.3
49583;BME280;36329;48.816;44.624;2024-01-30T13:55:52;102339;;;-0.4;97.7
49583;BME280;36329;48.816;44.624;2024-01-30T13:58:54;102338;;;-0.6;98.8
49583;BME280;36329;48.816;44.624;2024-01-30T14:01:57;102332;;;-0.5;100
49583;BME280;36329;48.816;44.624;2024-01-30T14:04:59;102322;;;-0.6;99.6
49583;BME280;36329;48.816;44.624;2024-01-30T14:08:02;102319;;;-0.5;100
49583;BME280;36329;48.816;44.624;2024-01-30T14:11:04;102323;;;-0.5;99.7
49583;BME280;36329;48.816;44.624;2024-01-30T14:14:06;102335;;;-0.4;99.7
49583;BME280;36329;48.816;44.624;2024-01-30T14:17:08;102332;;;-0.4;99.5
49583;BME280;36329;48.816;44.624;2024-01-30T14:20:11;102314;;;-0.4;99.8
49583;BME280;36329;48.816;44.624;2024-01-30T14:23:13;102320;;;-0.5;99.5
49583;BME280;36329;48.816;44.624;2024-01-30T14:26:16;102325;;;-0.5;100
49583;BME280;36329;48.816;44.624;2024-01-30T14:29:18;102323;;;-0.5;100
49583;BME280;36329;48.816;44.624;2024-01-30T14:32:20;102320;;;-0.5;100
49583;BME280;36329;48.816;44.624;2024-01-30T14:35:22;102334;;;-0.5;100
49583;BME280;36329;48.816;44.624;2024-01-30T14:38:25;102336;;;-0.7;100
49583;BME280;36329;48.816;44.624;2024-01-30T14:41:27;102338;;;-0.6;100
49583;BME280;36329;48.816;44.624;2024-01-30T14:44:30;102345;;;-0.7;100
49583;BME280;36329;48.816;44.624;2024-01-30T14:47:32;102350;;;-0.6;100
49583;BME280;36329;48.816;44.624;2024-01-30T14:50:35;102345;;;-0.4;100
49583;BME280;36329;48.816;44.624;2024-01-30T14:53:37;102355;;;-0.3;100
49583;BME280;36329;48.816;44.624;2024-01-30T14:56:39;102354;;;-0.3;100
49583;BME280;36329;48.816;44.624;2024-01-30T14:59:42;102350;;;-0.4;100
49583;BME280;36329;48.816;44.624;2024-01-30T15:02:46;102357;;;-0.3;100
49583;BME280;36329;48.816;44.624;2024-01-30T15:05:48;102358;;;-0.3;100
49583;BME280;36329;48.816;44.624;2024-01-30T15:08:52;102351;;;-0.4;100
49583;BME280;36329;48.816;44.624;2024-01-30T15:11:54;102354;;;-0.5;100
49583;BME280;36329;48.816;44.624;2024-01-30T15:14:57;102356;;;-0.4;100
49583;BME280;36329;48.816;44.624;2024-01-30T15:17:59;102375;;;-0.4;100
49583;BME280;36329;48.816;44.624;2024-01-30T15:21:01;102380;;;-0.6;100
49583;BME280;36329;48.816;44.624;2024-01-30T15:24:04;102363;;;-0.5;100
49583;BME280;36329;48.816;44.624;2024-01-30T15:27:07;102368;;;-0.4;100
49583;BME280;36329;48.816;44.624;2024-01-30T15:30:11;102370;;;-0.4;100
49583;BME280;36329;48.816;44.624;2024-01-30T15:33:13;102363;;;-0.4;99.9
49583;BME280;36329;48.816;44.624;2024-01-30T15:36:16;102342;;;-0.6;99.4
49583;BME280;36329;48.816;44.624;2024-01-30T15:39:18;102335;;;-0.6;100
49583;BME280;36329;48.816;44.624;2024-01-30T15:42:20;102330;;;-0.5;100
49583;BME280;36329;48.816;44.624;2024-01-30T15:45:23;102318;;;-0.5;99.6
49583;BME280;36329;48.816;44.624;2024-01-30T15:48:25;102314;;;-0.6;100
49583;BME280;36329;48.816;44.624;2024-01-30T15:51:28;102322;;;-0.7;100
49583;BME280;36329;48.816;44.624;2024-01-30T15:54:30;102322;;;-0.9;100
49583;BME280;36329;48.816;44.624;2024-01-30T15:57:32;102334;;;-0.9;100
49583;BME280;36329;48.816;44.624;2024-01-30T16:00:35;102330;;;-1;100
49583;BME280;36329;48.816;44.624;2024-01-30T16:03:37;102335;;;-0.9;100
49583;BME280;36329;48.816;44.624;2024-01-30T16:06:39;102339;;;-1;100
49583;BME280;36329;48.816;44.624;2024-01-30T16:09:44;102336;;;-1.1;100
49583;BME280;36329;48.816;44.624;2024-01-30T16:12:47;102333;;;-1;100
49583;BME280;36329;48.816;44.624;2024-01-30T16:15:50;102335;;;-1;100
49583;BME280;36329;48.816;44.624;2024-01-30T16:18:52;102344;;;-0.9;100
49583;BME280;36329;48.816;44.624;2024-01-30T16:21:55;102335;;;-0.8;100
49583;BME280;36329;48.816;44.624;2024-01-30T16:24:59;102340;;;-1.1;100
49583;BME280;36329;48.816;44.624;2024-01-30T16:28:02;102351;;;-1.1;100
49583;BME280;36329;48.816;44.624;2024-01-30T16:31:04;102352;;;-1;100
49583;BME280;36329;48.816;44.624;2024-01-30T16:34:11;102343;;;-0.9;100
49583;BME280;36329;48.816;44.624;2024-01-30T16:37:17;102343;;;-0.8;100
49583;BME280;36329;48.816;44.624;2024-01-30T16:40:21;102349;;;-0.9;100
49583;BME280;36329;48.816;44.624;2024-01-30T16:43:24;102347;;;-0.8;100
49583;BME280;36329;48.816;44.624;2024-01-30T16:46:34;102344;;;-0.7;100
49583;BME280;36329;48.816;44.624;2024-01-30T16:49:38;102346;;;-0.7;100
49583;BME280;36329;48.816;44.624;2024-01-30T16:52:43;102347;;;-0.5;99.6
49583;BME280;36329;48.816;44.624;2024-01-30T16:55:45;102360;;;-0.4;98.9
49583;BME280;36329;48.816;44.624;2024-01-30T16:58:51;102355;;;-0.4;99.1